Flight Track Log - Related Links

Times and Time Zones

All times are in EDT time to prevent confusion due to time zone crossing. See the N41WM flight status page for this flight to view local times or setup timezone preferences in your user account.

Time Position Orientation Groundspeed Altitude Reporting Facility
EDT Latitude Longitude Course Direction KTS MPH feet Rate Location/Type
Wed 01:17:25 PM 41.5019 -72.6811 172° South 115 132 4,500  Level Boston Center
Wed 01:18:25 PM 41.4728 -72.6756 172° South 106 122 4,600  Climbing Boston Center
Wed 01:19:29 PM 41.4456 -72.6867 197° South 100 115 4,500  Descending Boston Center
Wed 01:21:13 PM 41.4000 -72.7000 192° South 95 109 4,600  Climbing New York TRACON
Wed 01:22:07 PM 41.3833 -72.7167 217° Southwest 91 105 4,500 -50 Descending New York TRACON
Wed 01:23:13 PM 41.3500 -72.7167 180° South 94 108 4,500 48 Level New York TRACON
Wed 01:24:13 PM 41.3333 -72.7333 217° Southwest 94 108 4,600 53 Climbing New York TRACON
Wed 01:25:07 PM 41.3000 -72.7500 201° Southwest 98 113 4,600  Level New York TRACON
Wed 01:26:07 PM 41.2833 -72.7500 180° South 95 109 4,600 -50 Level New York TRACON
Wed 01:27:07 PM 41.2500 -72.7667 201° Southwest 102 117 4,500 -50 Descending New York TRACON
Wed 01:28:07 PM 41.2333 -72.7667 180° South 92 106 4,500 48 Level New York TRACON
Wed 01:29:13 PM 41.2000 -72.7833 201° Southwest 96 110 4,600 50 Climbing New York TRACON
Wed 01:30:07 PM 41.1833 -72.7833 180° South 103 119 4,600 -53 Level New York TRACON
Wed 01:31:07 PM 41.1500 -72.7833 180° South 106 122 4,500 -50 Descending New York TRACON
Wed 01:32:07 PM 41.1167 -72.8000 201° Southwest 98 113 4,500 50 Level New York TRACON
Wed 01:33:07 PM 41.1000 -72.8000 180° South 98 113 4,600 100 Climbing New York TRACON
Wed 01:34:07 PM 41.0667 -72.8167 201° Southwest 107 123 4,700  Climbing New York TRACON
Wed 01:35:01 PM 41.0333 -72.8167 180° South 107 123 4,600 -50 Descending New York TRACON
Wed 01:36:07 PM 41.0000 -72.8167 180° South 107 123 4,600 -150 Level New York TRACON
Wed 01:37:01 PM 40.9833 -72.8333 217° Southwest 114 131 4,300 -316 Descending New York TRACON
Wed 01:38:01 PM 40.9500 -72.8333 180° South 111 128 4,000 -400 Descending New York TRACON
Wed 01:39:01 PM 40.9167 -72.8500 201° Southwest 101 116 3,500 -500 Descending New York TRACON
Wed 01:41:00 PM 40.8883 -72.9359 229° Southwest  Level Estimated
Wed 01:48:00 PM 40.7874 -73.2384 246° West  Level FlightAware Approximate
Wed 01:49:00 PM 40.7730 -73.2816 246° West  Level FlightAware Approximate
Wed 01:50:00 PM 40.7585 -73.3247 246° West  Level FlightAware Approximate
Wed 01:51:00 PM 40.7440 -73.3679 229° Southwest  Level Estimated
Wed 01:52:00 PM 40.7167 -73.4000 229° Southwest  Level FlightAware Approximate
Wed 01:53:00 PM 40.7288 -73.4134 229° Southwest  Level Estimated
Wed 01:54:00 PM 40.7288 -73.4134 229° Southwest  Level Estimated
Wed 01:55:00 PM 40.7288 -73.4134 229° Southwest  Level Estimated
Wed 01:56:00 PM 40.7288 -73.4134 229° Southwest  Level Estimated
Wed 01:57:00 PM 40.7288 -73.4134 229° Southwest  Level Estimated
Wed 01:58:00 PM 40.7288 -73.4134 229° Southwest  Level Estimated
Wed 01:59:00 PM 40.7288 -73.4134 229° Southwest  Level Estimated
Wed 02:00:00 PM 40.7288 -73.4134 229° Southwest  Level Estimated
Wed 02:01:00 PM 40.7288 -73.4134 229° Southwest  Level Estimated
Wed 02:02:00 PM 40.7288 -73.4134 229° Southwest  Level Estimated
Wed 02:03:00 PM 40.7288 -73.4134 229° Southwest  Level Estimated
Wed 02:04:00 PM 40.7288 -73.4134 229° Southwest  Level Estimated
Wed 02:05:00 PM 40.7288 -73.4134 229° Southwest  Level Estimated
Wed 02:06:00 PM 40.7288 -73.4134 229° Southwest  Level Estimated
Wed 02:07:00 PM 40.7288 -73.4134 229° Southwest  Level Estimated
Wed 02:08:00 PM 40.7288 -73.4134 229° Southwest  Level Estimated
Wed 02:09:00 PM 40.7288 -73.4134 229° Southwest  Level Estimated
Wed 02:10:00 PM 40.7288 -73.4134 229° Southwest  Level Estimated
Wed 02:11:00 PM 40.7288 -73.4134 229° Southwest  Level Estimated
Wed 02:12:00 PM 40.7288 -73.4134 229° Southwest  Level Estimated
Wed 02:13:00 PM 40.7288 -73.4134 229° Southwest  Level Estimated

Login

Don't have an account? Register now (free) for customized features, flight alerts, and more!